Time;durP1;ratioP1;P1;durP2;ratioP2;P2;SDS_P1;SDS_P2;PMS_P1;PMS_P2;Temp;Humidity;BMP_temperature;BMP_pressure;BME280_temperature;BME280_humidity;BME280_pressure;Samples;Min_cycle;Max_cycle;Signal;HPM_P1;HPM_P2
2021/01/24 00:00:49;;;;;;;25.23;9.15;;;;;;;2.77;87.34;99145.28;4987178;28;20076;-73
2021/01/24 00:03:16;;;;;;;30.23;10.02;;;;;;;2.75;87.38;99139.34;4989748;28;20056;-73
2021/01/24 00:05:42;;;;;;;23.02;10.20;;;;;;;2.74;87.34;99152.00;4991708;28;20034;-73
2021/01/24 00:08:08;;;;;;;22.85;9.68;;;;;;;2.72;86.96;99148.75;4991257;28;20424;-73
2021/01/24 00:10:33;;;;;;;27.10;9.70;;;;;;;2.73;87.77;99144.16;4993014;28;20041;-73
2021/01/24 00:12:59;;;;;;;27.40;9.95;;;;;;;2.72;87.30;99147.94;4974042;28;20065;-73
2021/01/24 00:15:24;;;;;;;20.95;8.82;;;;;;;2.71;87.14;99154.41;4993592;28;20030;-73
2021/01/24 00:17:49;;;;;;;23.17;9.48;;;;;;;2.70;87.26;99150.09;4992081;28;20022;-73
2021/01/24 00:20:15;;;;;;;26.92;9.95;;;;;;;2.70;87.21;99150.09;4993456;28;20026;-73
2021/01/24 00:22:40;;;;;;;25.73;8.95;;;;;;;2.72;87.58;99153.31;4988945;28;20037;-74
2021/01/24 00:25:06;;;;;;;23.33;8.93;;;;;;;2.71;87.01;99152.53;4991824;28;20026;-73
2021/01/24 00:27:31;;;;;;;23.33;8.32;;;;;;;2.71;87.18;99157.09;4991894;28;20034;-73
2021/01/24 00:29:57;;;;;;;20.25;9.07;;;;;;;2.71;87.07;99152.53;4990956;28;20130;-73
2021/01/24 00:32:22;;;;;;;18.05;8.48;;;;;;;2.70;86.90;99148.22;4991656;28;20480;-73
2021/01/24 00:34:47;;;;;;;27.95;10.55;;;;;;;2.71;86.95;99151.72;4992857;28;20035;-73
2021/01/24 00:37:13;;;;;;;25.67;10.10;;;;;;;2.70;87.06;99150.09;4992058;28;20026;-74
2021/01/24 00:39:38;;;;;;;22.20;8.88;;;;;;;2.66;87.01;99150.59;4991071;28;20104;-74
2021/01/24 00:42:04;;;;;;;28.55;9.70;;;;;;;2.65;87.23;99146.31;4992663;28;20049;-74
2021/01/24 00:44:29;;;;;;;22.85;9.40;;;;;;;2.66;87.36;99156.00;4990927;28;20033;-74
2021/01/24 00:46:55;;;;;;;21.95;9.23;;;;;;;2.67;87.22;99156.78;4992279;28;20388;-73
2021/01/24 00:49:20;;;;;;;24.50;9.48;;;;;;;2.67;86.96;99154.09;4991683;28;20026;-74
2021/01/24 00:51:46;;;;;;;25.17;9.60;;;;;;;2.69;87.41;99153.84;4991508;28;20026;-73
2021/01/24 00:54:11;;;;;;;20.77;8.88;;;;;;;2.70;87.06;99166.22;4990598;28;20038;-74
2021/01/24 00:56:36;;;;;;;29.65;9.45;;;;;;;2.69;87.12;99156.53;4985462;28;20032;-73
2021/01/24 00:59:02;;;;;;;24.73;9.55;;;;;;;2.71;87.10;99167.88;4978918;28;20022;-74
2021/01/24 01:01:27;;;;;;;22.08;8.40;;;;;;;2.70;87.12;99163.53;4991024;28;20435;-73
2021/01/24 01:03:52;;;;;;;24.42;9.82;;;;;;;2.71;87.37;99165.97;4993652;28;20030;-73
2021/01/24 01:06:18;;;;;;;21.48;8.82;;;;;;;2.72;86.99;99158.72;4994809;28;20037;-73
2021/01/24 01:08:43;;;;;;;32.40;10.93;;;;;;;2.72;87.13;99156.03;4993736;28;20081;-73
2021/01/24 01:11:09;;;;;;;27.52;9.60;;;;;;;2.71;86.91;99157.09;4994772;28;20329;-73
2021/01/24 01:13:34;;;;;;;23.60;8.68;;;;;;;2.70;87.42;99144.69;4993919;28;20026;-73
2021/01/24 01:16:01;;;;;;;28.27;9.88;;;;;;;2.71;87.06;99155.22;4994962;28;20099;-73
2021/01/24 01:18:30;;;;;;;17.65;8.32;;;;;;;2.70;87.26;99152.78;4993553;28;20105;-73
2021/01/24 01:20:55;;;;;;;21.27;9.65;;;;;;;2.67;87.77;99156.78;4993365;28;20030;-73
2021/01/24 01:23:21;;;;;;;21.27;8.90;;;;;;;2.65;86.71;99149.00;4993438;28;20022;-73
2021/01/24 01:25:46;;;;;;;27.65;11.45;;;;;;;2.62;87.18;99149.53;4995378;28;20479;-73
2021/01/24 01:28:12;;;;;;;34.10;10.25;;;;;;;2.59;87.09;99150.06;4994560;28;20046;-73
2021/01/24 01:30:37;;;;;;;29.63;9.43;;;;;;;2.56;87.22;99145.16;4994134;28;20027;-73
2021/01/24 01:33:02;;;;;;;21.55;9.65;;;;;;;2.54;87.26;99146.53;4994062;28;20041;-74
2021/01/24 01:35:28;;;;;;;22.67;9.43;;;;;;;2.52;87.54;99138.72;4995833;28;20126;-73
2021/01/24 01:37:53;;;;;;;21.85;11.13;;;;;;;2.48;87.39;99142.97;4994071;28;20057;-73
2021/01/24 01:40:19;;;;;;;26.83;10.10;;;;;;;2.46;87.45;99134.38;4994936;28;20022;-73
2021/01/24 01:42:44;;;;;;;28.55;10.45;;;;;;;2.46;86.88;99147.03;4991095;28;20030;-73
2021/01/24 01:45:10;;;;;;;27.00;10.63;;;;;;;2.44;87.25;99133.81;4992909;28;20034;-74
2021/01/24 01:47:35;;;;;;;28.20;10.52;;;;;;;2.42;87.47;99133.28;4993505;28;20197;-74
2021/01/24 01:50:01;;;;;;;26.80;10.18;;;;;;;2.40;87.29;99130.03;4985251;28;20102;-73
2021/01/24 01:52:27;;;;;;;33.30;12.18;;;;;;;2.37;87.13;99120.63;4990068;28;20034;-73
2021/01/24 01:54:52;;;;;;;18.88;8.50;;;;;;;2.37;87.37;99130.53;4993409;28;20027;-73
2021/01/24 01:57:19;;;;;;;26.65;9.98;;;;;;;2.36;87.08;99145.06;4977900;28;20434;-74
2021/01/24 01:59:44;;;;;;;26.42;9.82;;;;;;;2.35;87.68;99148.84;4983138;28;20065;-73
2021/01/24 02:02:28;;;;;;;45.22;11.90;;;;;;;2.37;86.95;99152.06;4994137;28;20022;-74
2021/01/24 02:05:00;;;;;;;23.35;10.25;;;;;;;2.37;87.57;99152.06;4991798;28;20026;-73
2021/01/24 02:07:30;;;;;;;21.65;9.13;;;;;;;2.38;87.50;99153.69;4977839;28;20026;-73
2021/01/24 02:09:58;;;;;;;27.13;10.57;;;;;;;2.40;87.37;99162.28;4994061;28;20041;-74
2021/01/24 02:12:36;;;;;;;21.15;9.80;;;;;;;2.40;87.76;99167.66;4993877;28;20542;-73
2021/01/24 02:15:07;;;;;;;23.65;9.90;;;;;;;2.42;87.44;99165.53;4992496;28;20037;-73
2021/01/24 02:17:35;;;;;;;29.40;10.27;;;;;;;2.44;87.81;99168.78;4977797;28;20505;-74
2021/01/24 02:20:05;;;;;;;27.08;10.15;;;;;;;2.43;87.49;99177.94;4988550;28;20047;-73
2021/01/24 02:22:32;;;;;;;23.70;9.05;;;;;;;2.44;87.37;99179.53;4993773;28;20026;-73
2021/01/24 02:25:09;;;;;;;26.13;10.80;;;;;;;2.43;87.22;99183.31;4991466;28;20033;-73
2021/01/24 02:27:49;;;;;;;25.95;10.05;;;;;;;2.44;87.33;99179.53;4992469;28;20034;-74
2021/01/24 02:30:22;;;;;;;26.48;10.65;;;;;;;2.44;87.77;99176.84;4994732;28;20093;-73
2021/01/24 02:32:49;;;;;;;26.15;10.80;;;;;;;2.44;87.76;99176.84;4993224;28;20023;-74
2021/01/24 02:35:14;;;;;;;30.63;10.15;;;;;;;2.44;87.37;99182.22;4977260;28;20026;-73
2021/01/24 02:37:40;;;;;;;28.52;11.18;;;;;;;2.44;87.49;99182.22;4967264;28;20069;-73
2021/01/24 02:40:08;;;;;;;27.80;10.77;;;;;;;2.44;87.76;99174.16;4976432;28;20049;-74
2021/01/24 02:42:34;;;;;;;28.02;10.65;;;;;;;2.44;87.21;99184.91;4993549;28;20428;-73
2021/01/24 02:44:59;;;;;;;26.00;11.45;;;;;;;2.46;87.74;99193.56;4992344;28;20031;-73
2021/01/24 02:47:25;;;;;;;31.35;11.65;;;;;;;2.48;87.34;99191.38;4993088;28;20030;-74
2021/01/24 02:49:50;;;;;;;28.83;11.63;;;;;;;2.48;88.18;99180.63;4976017;28;20022;-73
2021/01/24 02:52:15;;;;;;;21.75;10.10;;;;;;;2.50;88.00;99183.88;4976355;28;20022;-73
2021/01/24 02:54:41;;;;;;;26.23;11.57;;;;;;;2.52;87.34;99181.75;4991897;28;20027;-73
2021/01/24 02:57:06;;;;;;;30.65;10.98;;;;;;;2.52;87.29;99186.31;4976955;28;20030;-73
2021/01/24 02:59:32;;;;;;;25.33;10.25;;;;;;;2.50;87.29;99173.13;4976274;28;20022;-73
2021/01/24 03:01:58;;;;;;;29.17;11.02;;;;;;;2.49;87.78;99171.50;4976417;28;20076;-73
2021/01/24 03:04:23;;;;;;;30.92;11.13;;;;;;;2.48;87.32;99169.88;4975851;28;20026;-73
2021/01/24 03:06:48;;;;;;;23.33;10.32;;;;;;;2.47;87.46;99170.94;4993610;28;20029;-73
2021/01/24 03:09:14;;;;;;;25.20;11.43;;;;;;;2.44;87.76;99179.53;4974895;28;20451;-73
2021/01/24 03:11:43;;;;;;;30.40;12.27;;;;;;;2.42;87.73;99179.00;4992344;28;20073;-73
2021/01/24 03:14:09;;;;;;;27.05;12.68;;;;;;;2.42;87.51;99174.41;4976637;28;20069;-73
2021/01/24 03:16:35;;;;;;;28.83;11.57;;;;;;;2.41;87.77;99182.75;4975352;28;20459;-73
2021/01/24 03:19:00;;;;;;;34.10;11.98;;;;;;;2.39;87.50;99176.81;4967345;28;20098;-73
2021/01/24 03:21:26;;;;;;;29.35;10.90;;;;;;;2.38;87.23;99180.59;4988758;28;20419;-71
2021/01/24 03:23:52;;;;;;;32.33;12.80;;;;;;;2.39;87.82;99174.13;4969741;28;20476;-73
2021/01/24 03:26:17;;;;;;;30.42;11.77;;;;;;;2.37;88.01;99185.16;4992235;28;20526;-73
2021/01/24 03:28:43;;;;;;;26.92;11.98;;;;;;;2.37;87.40;99179.78;4990156;28;20046;-73
2021/01/24 03:31:08;;;;;;;29.25;11.73;;;;;;;2.34;87.55;99174.09;4992230;28;20033;-73
2021/01/24 03:33:34;;;;;;;23.23;10.10;;;;;;;2.34;87.89;99171.41;4990861;28;20384;-74
2021/01/24 03:35:59;;;;;;;28.10;11.38;;;;;;;2.31;87.48;99171.94;4993030;28;20022;-73
2021/01/24 03:38:25;;;;;;;27.10;10.80;;;;;;;2.28;87.75;99169.75;4991254;28;20076;-73
2021/01/24 03:40:50;;;;;;;29.00;11.40;;;;;;;2.24;87.69;99180.22;4992825;28;20050;-73
2021/01/24 03:43:16;;;;;;;23.60;11.45;;;;;;;2.20;87.60;99179.91;4991589;28;20037;-73
2021/01/24 03:45:41;;;;;;;28.73;11.30;;;;;;;2.17;87.71;99175.06;4992686;28;20041;-73
2021/01/24 03:48:07;;;;;;;27.02;11.00;;;;;;;2.13;87.50;99173.97;4991941;28;20085;-73
2021/01/24 03:50:32;;;;;;;30.90;11.98;;;;;;;2.09;87.92;99170.16;4987548;28;20114;-73
2021/01/24 03:52:57;;;;;;;31.13;11.18;;;;;;;2.04;87.80;99180.88;4991036;28;20037;-73
2021/01/24 03:55:23;;;;;;;22.92;11.40;;;;;;;1.99;88.08;99175.44;4992174;28;20092;-73
2021/01/24 03:57:48;;;;;;;27.67;10.93;;;;;;;1.95;87.89;99177.06;4992682;28;20384;-74
2021/01/24 04:00:14;;;;;;;23.88;10.50;;;;;;;1.93;87.88;99190.72;4990265;28;20031;-74
2021/01/24 04:02:39;;;;;;;31.13;12.65;;;;;;;1.89;87.93;99183.47;4992612;28;20015;-73
2021/01/24 04:05:05;;;;;;;23.95;10.90;;;;;;;1.85;87.81;99185.03;4990392;28;20027;-73
2021/01/24 04:07:31;;;;;;;25.85;10.73;;;;;;;1.81;87.29;99182.03;4991888;28;20108;-73
2021/01/24 04:09:56;;;;;;;27.55;11.15;;;;;;;1.77;87.75;99189.81;4991639;28;20034;-73
2021/01/24 04:12:21;;;;;;;24.48;12.00;;;;;;;1.77;88.00;99187.13;4990322;28;20484;-74
2021/01/24 04:14:47;;;;;;;30.45;12.45;;;;;;;1.75;87.59;99191.13;4990538;28;20030;-73
2021/01/24 04:17:12;;;;;;;28.60;12.43;;;;;;;1.71;87.97;99188.13;4992940;28;20034;-73
2021/01/24 04:19:38;;;;;;;30.60;11.82;;;;;;;1.70;87.59;99196.44;4973334;28;20034;-73
2021/01/24 04:22:03;;;;;;;31.85;12.70;;;;;;;1.67;87.83;99192.41;4991045;28;20538;-73
2021/01/24 04:24:28;;;;;;;32.45;12.52;;;;;;;1.66;87.58;99189.94;4990219;28;20384;-73
2021/01/24 04:26:54;;;;;;;31.98;13.48;;;;;;;1.66;87.90;99187.25;4991547;28;20026;-74
2021/01/24 04:29:19;;;;;;;35.55;14.02;;;;;;;1.66;87.50;99189.94;4990436;28;20100;-74
2021/01/24 04:31:45;;;;;;;25.67;11.65;;;;;;;1.66;87.67;99187.25;4991287;28;20027;-73
2021/01/24 04:34:10;;;;;;;29.00;11.70;;;;;;;1.67;87.65;99188.91;4991148;28;20045;-74
2021/01/24 04:36:36;;;;;;;32.85;14.73;;;;;;;1.69;87.75;99189.44;4976579;28;20072;-74
2021/01/24 04:39:02;;;;;;;37.28;13.98;;;;;;;1.72;88.21;99187.06;4994926;28;20026;-74
2021/01/24 04:41:27;;;;;;;34.53;12.10;;;;;;;1.74;87.66;99181.44;4994149;28;20038;-74
2021/01/24 04:43:52;;;;;;;31.73;12.13;;;;;;;1.74;87.90;99176.88;4977337;28;20038;-73
2021/01/24 04:46:18;;;;;;;29.00;12.02;;;;;;;1.78;87.80;99188.75;4994894;28;20030;-73
2021/01/24 04:48:44;;;;;;;26.50;12.63;;;;;;;1.81;87.80;99197.34;4977163;28;20072;-73
2021/01/24 04:51:09;;;;;;;30.25;12.40;;;;;;;1.84;88.29;99191.47;4977955;28;20034;-74
2021/01/24 04:53:35;;;;;;;33.80;11.45;;;;;;;1.86;88.33;99194.72;4994804;28;20570;-74
2021/01/24 04:56:00;;;;;;;26.42;12.00;;;;;;;1.85;88.28;99191.19;5010865;28;20105;-74
2021/01/24 04:58:26;;;;;;;32.45;12.35;;;;;;;1.87;88.21;99188.28;4977125;28;20034;-73
2021/01/24 05:00:51;;;;;;;29.00;12.77;;;;;;;1.86;88.16;99194.72;4994091;28;20030;-74
2021/01/24 05:03:17;;;;;;;33.15;13.48;;;;;;;1.86;88.04;99194.72;4993449;28;20027;-74
2021/01/24 05:05:42;;;;;;;32.47;13.15;;;;;;;1.85;88.07;99193.06;4993892;28;20446;-74
2021/01/24 05:08:09;;;;;;;29.60;12.63;;;;;;;1.85;88.39;99198.44;4995410;28;20027;-73
2021/01/24 05:10:34;;;;;;;25.85;12.27;;;;;;;1.84;88.01;99188.78;4977726;28;20518;-74
2021/01/24 05:13:00;;;;;;;26.17;12.48;;;;;;;1.78;88.27;99204.06;4996148;28;20057;-73
2021/01/24 05:15:27;;;;;;;33.42;13.40;;;;;;;1.72;88.24;99195.13;4994998;28;20022;-73
2021/01/24 05:17:54;;;;;;;32.63;14.02;;;;;;;1.67;88.42;99192.41;4993472;28;20435;-73
2021/01/24 05:20:29;;;;;;;29.25;12.90;;;;;;;1.64;88.41;99198.28;4994997;28;20050;-73
2021/01/24 05:22:54;;;;;;;32.42;13.05;;;;;;;1.62;88.42;99199.59;4994448;28;20531;-74
2021/01/24 05:25:20;;;;;;;28.52;12.95;;;;;;;1.59;88.01;99190.16;4993845;28;20030;-73
2021/01/24 05:27:46;;;;;;;33.47;11.85;;;;;;;1.57;87.95;99203.03;4994545;28;20030;-74
2021/01/24 05:30:20;;;;;;;34.85;14.50;;;;;;;1.58;88.58;99199.28;4993015;28;20068;-74
2021/01/24 05:32:45;;;;;;;26.65;13.45;;;;;;;1.68;88.52;99203.94;4993332;28;20037;-73
2021/01/24 05:35:12;;;;;;;25.88;13.07;;;;;;;1.74;88.15;99202.94;4994086;28;20026;-74
2021/01/24 05:37:38;;;;;;;27.73;11.65;;;;;;;1.78;88.18;99194.09;4993752;28;20065;-74
2021/01/24 05:40:05;;;;;;;34.92;14.50;;;;;;;1.82;88.20;99191.72;4992543;28;20030;-74
2021/01/24 05:42:34;;;;;;;29.85;13.68;;;;;;;1.85;88.45;99198.44;4993967;28;20030;-74
2021/01/24 05:44:59;;;;;;;29.85;12.50;;;;;;;1.86;88.32;99194.72;4977368;28;20105;-73
2021/01/24 05:47:24;;;;;;;31.88;13.85;;;;;;;1.86;87.90;99200.09;4993909;28;20045;-73
2021/01/24 05:49:50;;;;;;;32.42;15.15;;;;;;;1.86;88.26;99192.03;4991968;28;20365;-73
2021/01/24 05:52:19;;;;;;;40.38;14.63;;;;;;;1.86;88.78;99198.22;4994534;28;20041;-73
2021/01/24 05:54:45;;;;;;;33.10;14.60;;;;;;;1.87;88.24;99189.06;4993070;28;20018;-73
2021/01/24 05:57:11;;;;;;;35.38;14.10;;;;;;;1.88;88.78;99197.94;4995241;28;20501;-74
2021/01/24 05:59:49;;;;;;;32.00;14.13;;;;;;;1.88;88.11;99203.31;4992910;28;20022;-73
2021/01/24 06:02:16;;;;;;;36.17;15.63;;;;;;;1.88;88.40;99195.25;4994680;28;20046;-73
2021/01/24 06:04:41;;;;;;;35.97;14.63;;;;;;;1.88;88.40;99195.25;4992810;28;20495;-72
2021/01/24 06:07:07;;;;;;;28.27;13.30;;;;;;;1.86;88.56;99197.41;4993766;28;20026;-74
2021/01/24 06:09:32;;;;;;;33.95;13.43;;;;;;;1.81;88.37;99197.34;4993851;28;20218;-74
2021/01/24 06:11:58;;;;;;;27.85;13.82;;;;;;;1.74;88.39;99197.56;4994735;28;20373;-73
2021/01/24 06:14:23;;;;;;;34.05;14.25;;;;;;;1.67;88.73;99203.13;4975897;28;20036;-73
2021/01/24 06:16:49;;;;;;;32.63;14.98;;;;;;;1.64;88.72;99208.22;4976021;28;20383;-73
2021/01/24 06:19:14;;;;;;;34.10;14.75;;;;;;;1.60;88.52;99207.91;4975710;28;20030;-73
2021/01/24 06:21:47;;;;;;;32.85;14.80;;;;;;;1.63;88.32;99211.94;4975738;28;20026;-74
2021/01/24 06:24:18;;;;;;;39.22;15.40;;;;;;;1.66;88.75;99211.44;4994119;28;20089;-73
2021/01/24 06:26:44;;;;;;;37.05;16.60;;;;;;;1.62;88.46;99216.53;4977631;28;20040;-74
2021/01/24 06:29:10;;;;;;;31.95;14.23;;;;;;;1.56;88.33;99222.91;4975567;28;20113;-73
2021/01/24 06:31:50;;;;;;;38.50;15.35;;;;;;;1.52;88.41;99222.59;4976499;28;20495;-73
2021/01/24 06:34:15;;;;;;;36.22;15.27;;;;;;;1.48;88.21;99218.78;4977276;28;20030;-73
2021/01/24 06:37:02;;;;;;;35.05;16.35;;;;;;;1.46;88.20;99228.16;4992571;28;20034;-74
2021/01/24 06:39:40;;;;;;;35.65;16.02;;;;;;;1.47;88.42;99229.78;4983840;28;20032;-73
2021/01/24 06:42:05;;;;;;;30.52;14.32;;;;;;;1.48;88.63;99226.03;4992467;28;20476;-73
2021/01/24 06:44:41;;;;;;;38.53;15.88;;;;;;;1.50;88.23;99240.00;4976515;28;20065;-74
2021/01/24 06:47:08;;;;;;;37.33;15.70;;;;;;;1.52;89.25;99238.69;4992469;28;20409;-73
2021/01/24 06:49:43;;;;;;;33.20;15.63;;;;;;;1.58;88.90;99242.25;4978769;28;20035;-73
2021/01/24 06:52:21;;;;;;;35.10;16.00;;;;;;;1.63;88.98;99247.66;4992760;28;20026;-73
2021/01/24 06:54:50;;;;;;;35.88;15.25;;;;;;;1.64;88.42;99246.63;4986271;28;20495;-73
2021/01/24 06:57:16;;;;;;;36.22;15.00;;;;;;;1.66;88.86;99249.03;4992769;28;20030;-73
2021/01/24 06:59:42;;;;;;;31.30;14.52;;;;;;;1.65;89.14;99253.63;4987960;28;20107;-73
2021/01/24 07:02:29;;;;;;;34.85;15.38;;;;;;;1.62;88.85;99243.38;4984695;28;20105;-73
2021/01/24 07:05:17;;;;;;;34.47;14.50;;;;;;;1.61;88.35;99249.00;4992858;28;20034;-73
2021/01/24 07:07:43;;;;;;;28.98;13.65;;;;;;;1.63;88.83;99250.38;4992524;28;20038;-73
2021/01/24 07:10:10;;;;;;;33.90;15.18;;;;;;;1.63;88.22;99250.38;4985245;28;20030;-74
2021/01/24 07:12:38;;;;;;;36.88;15.70;;;;;;;1.64;88.94;99252.00;4992676;28;20030;-74
2021/01/24 07:15:08;;;;;;;32.80;15.38;;;;;;;1.65;88.93;99248.25;4986390;28;20034;-73
2021/01/24 07:17:34;;;;;;;32.35;14.95;;;;;;;1.69;88.94;99254.75;5002300;28;20097;-73
2021/01/24 07:19:59;;;;;;;35.42;16.35;;;;;;;1.71;88.55;99241.84;4991583;28;20381;-73
2021/01/24 07:22:25;;;;;;;44.85;17.95;;;;;;;1.75;88.89;99245.66;4992347;28;20046;-74
2021/01/24 07:24:52;;;;;;;38.10;16.48;;;;;;;1.79;88.57;99251.34;4989836;28;20183;-73
2021/01/24 07:27:19;;;;;;;37.72;17.23;;;;;;;1.85;88.54;99254.88;4976060;28;20113;-73
2021/01/24 07:29:44;;;;;;;36.22;17.23;;;;;;;1.89;88.81;99259.50;4974970;28;20061;-73
2021/01/24 07:32:11;;;;;;;42.10;17.42;;;;;;;1.95;88.97;99273.78;4992769;28;20057;-73
2021/01/24 07:34:37;;;;;;;42.60;17.23;;;;;;;2.01;88.45;99275.47;4992465;28;20030;-74
2021/01/24 07:37:04;;;;;;;38.80;16.23;;;;;;;2.06;88.67;99275.50;4975739;28;20026;-73
2021/01/24 07:39:29;;;;;;;36.70;16.40;;;;;;;2.09;89.10;99280.38;4981338;28;20062;-74
2021/01/24 07:41:55;;;;;;;44.30;17.98;;;;;;;2.13;88.93;99275.31;4975320;28;20036;-73
2021/01/24 07:44:20;;;;;;;31.38;16.52;;;;;;;2.14;88.71;99283.09;4984631;28;20036;-73
2021/01/24 07:46:46;;;;;;;32.17;16.73;;;;;;;2.17;88.38;99276.41;4990765;28;20502;-73
2021/01/24 07:49:11;;;;;;;42.67;17.52;;;;;;;2.19;88.10;99285.03;4990534;28;20026;-74
2021/01/24 07:51:36;;;;;;;38.38;16.55;;;;;;;2.21;88.93;99288.28;4991305;28;20356;-73
2021/01/24 07:54:02;;;;;;;38.83;16.70;;;;;;;2.23;88.46;99281.56;4985593;28;20045;-74
2021/01/24 07:56:27;;;;;;;32.25;15.98;;;;;;;2.25;88.71;99277.81;4985364;28;20045;-73
2021/01/24 07:58:53;;;;;;;37.70;16.52;;;;;;;2.26;88.09;99282.94;4953611;28;20029;-74
2021/01/24 08:01:19;;;;;;;45.53;17.75;;;;;;;2.27;88.57;99287.25;4989223;28;20030;-73
2021/01/24 08:03:44;;;;;;;34.67;16.70;;;;;;;2.28;88.71;99280.81;4991392;28;20026;-74
2021/01/24 08:06:11;;;;;;;38.03;15.73;;;;;;;2.29;88.26;99287.00;4988923;28;20041;-73
2021/01/24 08:08:37;;;;;;;43.00;16.20;;;;;;;2.30;88.79;99291.31;4984231;28;20435;-74
2021/01/24 08:11:03;;;;;;;30.40;14.27;;;;;;;2.32;88.62;99291.84;4989413;28;20068;-74
2021/01/24 08:13:28;;;;;;;31.77;16.33;;;;;;;2.32;88.36;99286.47;4991794;28;20080;-73
2021/01/24 08:15:54;;;;;;;38.10;16.70;;;;;;;2.31;88.55;99288.34;4973272;28;20030;-72
2021/01/24 08:18:20;;;;;;;34.47;16.30;;;;;;;2.33;88.68;99285.44;4974437;28;20022;-74
2021/01/24 08:20:45;;;;;;;38.72;16.55;;;;;;;2.34;88.46;99287.03;4984691;28;20029;-74
2021/01/24 08:23:12;;;;;;;30.10;16.20;;;;;;;2.35;88.33;99286.00;4972687;28;20472;-74
2021/01/24 08:25:38;;;;;;;33.03;15.85;;;;;;;2.36;88.31;99293.78;4985509;28;20026;-73
2021/01/24 08:28:03;;;;;;;34.65;15.95;;;;;;;2.38;88.85;99293.53;4987533;28;20085;-74
2021/01/24 08:30:29;;;;;;;31.73;15.75;;;;;;;2.39;88.79;99292.47;4986145;28;20038;-74
2021/01/24 08:32:54;;;;;;;37.78;16.35;;;;;;;2.40;88.84;99294.06;4988195;28;20029;-74
2021/01/24 08:35:20;;;;;;;37.20;16.52;;;;;;;2.40;88.95;99296.75;4965023;28;20488;-74
2021/01/24 08:37:45;;;;;;;32.45;15.43;;;;;;;2.41;88.52;99299.19;4987322;28;20058;-74
2021/01/24 08:40:11;;;;;;;33.63;16.58;;;;;;;2.41;88.11;99307.28;4971037;28;20092;-74
2021/01/24 08:42:49;;;;;;;36.53;15.63;;;;;;;2.42;88.69;99306.19;4986916;28;20029;-74
2021/01/24 08:45:23;;;;;;;33.20;16.40;;;;;;;2.42;88.22;99305.38;4985835;28;20037;-74
2021/01/24 08:47:55;;;;;;;33.78;15.23;;;;;;;2.43;88.41;99310.53;4988272;28;20026;-74
2021/01/24 08:50:21;;;;;;;32.65;16.20;;;;;;;2.44;88.40;99308.63;4988008;28;20027;-74
2021/01/24 08:53:02;;;;;;;38.40;16.27;;;;;;;2.43;88.65;99307.84;4988396;28;20082;-74
2021/01/24 08:55:28;;;;;;;34.28;15.25;;;;;;;2.45;88.31;99315.63;4989071;28;20049;-73
2021/01/24 08:57:53;;;;;;;31.13;15.32;;;;;;;2.44;88.34;99314.03;4987465;28;20588;-74
2021/01/24 09:00:19;;;;;;;33.33;16.27;;;;;;;2.47;88.23;99324.25;4984578;28;20034;-74
2021/01/24 09:02:45;;;;;;;33.53;15.90;;;;;;;2.49;88.70;99327.50;4984614;28;20018;-74
2021/01/24 09:05:13;;;;;;;36.35;17.30;;;;;;;2.51;88.08;99335.31;4990196;28;20365;-74
2021/01/24 09:07:43;;;;;;;41.10;16.05;;;;;;;2.51;88.18;99333.47;4970485;28;20070;-74
2021/01/24 09:10:24;;;;;;;33.33;16.27;;;;;;;2.52;88.08;99332.38;4975360;28;20038;-74
2021/01/24 09:13:03;;;;;;;36.03;17.47;;;;;;;2.54;88.20;99332.94;4987951;28;20035;-74
2021/01/24 09:15:32;;;;;;;34.00;16.40;;;;;;;2.56;88.22;99328.09;4985044;28;20307;-73
2021/01/24 09:17:58;;;;;;;35.55;16.95;;;;;;;2.58;87.94;99334.03;4987912;28;20480;-74
2021/01/24 09:20:24;;;;;;;31.55;14.90;;;;;;;2.59;88.26;99324.91;4983946;28;20062;-74
2021/01/24 09:22:52;;;;;;;30.98;15.70;;;;;;;2.62;88.28;99334.34;4988508;28;20306;-73
2021/01/24 09:25:18;;;;;;;34.72;16.25;;;;;;;2.63;88.04;99338.66;4988434;28;20038;-73
2021/01/24 09:27:43;;;;;;;39.65;15.98;;;;;;;2.64;88.25;99341.06;4991597;28;20085;-73
2021/01/24 09:30:10;;;;;;;35.53;16.08;;;;;;;2.65;87.94;99341.91;4991470;28;20510;-74
2021/01/24 09:32:36;;;;;;;35.10;15.05;;;;;;;2.67;88.01;99343.28;4992624;28;20387;-74
2021/01/24 09:35:01;;;;;;;36.15;16.20;;;;;;;2.71;88.00;99345.44;4984232;28;20035;-73
2021/01/24 09:37:27;;;;;;;32.85;17.45;;;;;;;2.73;87.91;99336.06;4992009;28;20448;-73
2021/01/24 09:39:52;;;;;;;29.70;15.45;;;;;;;2.73;88.21;99345.97;4992631;28;20368;-74
2021/01/24 09:42:17;;;;;;;34.65;14.43;;;;;;;2.74;88.01;99344.94;4991991;28;20412;-74
2021/01/24 09:44:43;;;;;;;31.52;15.50;;;;;;;2.75;87.85;99346.53;4990701;28;20034;-74
2021/01/24 09:47:09;;;;;;;30.98;16.17;;;;;;;2.77;88.40;99349.78;4990627;28;20026;-74
2021/01/24 09:49:34;;;;;;;34.92;16.48;;;;;;;2.79;88.07;99347.66;4985255;28;20037;-73
2021/01/24 09:51:59;;;;;;;29.35;14.98;;;;;;;2.79;88.22;99345.78;4992099;28;20041;-74
2021/01/24 09:54:25;;;;;;;29.02;15.13;;;;;;;2.80;87.86;99349.28;4992722;28;20034;-74
2021/01/24 09:56:51;;;;;;;26.50;13.63;;;;;;;2.83;87.89;99343.38;4987052;28;20026;-74
2021/01/24 09:59:16;;;;;;;35.92;15.52;;;;;;;2.85;88.18;99360.06;4989308;28;20018;-74
2021/01/24 10:01:42;;;;;;;33.80;15.85;;;;;;;2.84;88.25;99361.16;4985271;28;20035;-73
2021/01/24 10:04:08;;;;;;;33.28;14.68;;;;;;;2.86;88.40;99364.38;4968091;28;20030;-73
2021/01/24 10:06:33;;;;;;;34.45;15.95;;;;;;;2.86;88.50;99364.38;4990772;28;20856;-73
2021/01/24 10:08:59;;;;;;;31.10;15.13;;;;;;;2.89;88.14;99372.78;4992831;28;20027;-73
2021/01/24 10:11:25;;;;;;;33.10;16.20;;;;;;;2.92;87.74;99371.44;4987135;28;20472;-74
2021/01/24 10:13:50;;;;;;;31.05;15.52;;;;;;;2.94;87.83;99376.56;4975036;28;20032;-74
2021/01/24 10:16:16;;;;;;;31.98;14.80;;;;;;;2.96;88.07;99377.13;4993389;28;20034;-73
2021/01/24 10:18:41;;;;;;;35.95;16.25;;;;;;;2.98;87.85;99377.69;4989943;28;20069;-74
2021/01/24 10:21:07;;;;;;;34.55;15.40;;;;;;;2.96;88.19;99372.53;4989109;28;20031;-75
2021/01/24 10:23:33;;;;;;;33.28;15.70;;;;;;;2.98;87.78;99372.28;4974985;28;20430;-73
2021/01/24 10:25:58;;;;;;;27.25;15.02;;;;;;;3.00;87.63;99376.34;4990952;28;20042;-73
2021/01/24 10:28:24;;;;;;;30.35;15.52;;;;;;;3.01;87.85;99371.78;4992867;28;20488;-73
2021/01/24 10:30:50;;;;;;;45.55;15.45;;;;;;;3.02;87.71;99374.19;4992993;28;20030;-74
2021/01/24 10:33:16;;;;;;;29.98;14.55;;;;;;;3.00;87.45;99375.50;4989184;28;20018;-74
2021/01/24 10:35:41;;;;;;;34.40;14.13;;;;;;;2.99;87.46;99376.59;4993541;28;20495;-74
2021/01/24 10:38:07;;;;;;;29.83;14.25;;;;;;;3.01;87.98;99377.97;4991178;28;20157;-74
2021/01/24 10:40:32;;;;;;;30.30;14.98;;;;;;;3.06;88.26;99369.94;4992562;28;20484;-73
2021/01/24 10:42:58;;;;;;;33.50;15.73;;;;;;;3.08;88.00;99378.56;4993341;28;20046;-73
2021/01/24 10:45:23;;;;;;;33.85;15.52;;;;;;;3.13;88.06;99376.97;4992704;28;20081;-74
2021/01/24 10:47:49;;;;;;;35.63;15.82;;;;;;;3.15;87.95;99377.50;4982228;28;20110;-73
2021/01/24 10:50:15;;;;;;;33.92;15.38;;;;;;;3.16;87.81;99368.34;4984141;28;20034;-74
2021/01/24 10:52:40;;;;;;;34.38;16.73;;;;;;;3.15;87.73;99366.75;4973695;28;20468;-74
2021/01/24 10:55:06;;;;;;;32.13;15.70;;;;;;;3.13;87.44;99375.06;4989576;28;20084;-74
2021/01/24 10:57:31;;;;;;;27.77;15.55;;;;;;;3.12;87.75;99376.16;4991587;28;20093;-74
2021/01/24 10:59:57;;;;;;;29.58;14.95;;;;;;;3.12;87.53;99373.47;4992338;28;20567;-73
2021/01/24 11:02:22;;;;;;;35.20;16.13;;;;;;;3.11;87.34;99367.28;4987904;28;20049;-74
2021/01/24 11:04:48;;;;;;;41.78;18.58;;;;;;;3.12;87.75;99373.47;4991281;28;20025;-74
2021/01/24 11:07:13;;;;;;;32.78;16.20;;;;;;;3.15;87.36;99377.50;4990784;28;20088;-74
2021/01/24 11:09:38;;;;;;;36.60;17.08;;;;;;;3.16;87.70;99377.25;4990872;28;20081;-75
2021/01/24 11:12:04;;;;;;;35.63;18.02;;;;;;;3.18;87.55;99377.00;4985966;28;20372;-74
2021/01/24 11:14:30;;;;;;;34.58;16.85;;;;;;;3.21;87.59;99376.47;4987474;28;20034;-73
2021/01/24 11:16:55;;;;;;;31.83;17.60;;;;;;;3.23;87.79;99369.75;4992669;28;20033;-72
2021/01/24 11:19:20;;;;;;;33.25;17.00;;;;;;;3.24;87.90;99374.06;4993398;28;20034;-74
2021/01/24 11:21:46;;;;;;;31.52;17.35;;;;;;;3.25;87.92;99373.00;4987173;28;20055;-74
2021/01/24 11:24:11;;;;;;;35.10;17.33;;;;;;;3.26;87.44;99371.13;4983149;28;20442;-74